sensor_id;sensor_type;location;lat;lon;timestamp;pressure;altitude;pressure_sealevel;temperature;humidity
64336;BME280;50672;53.362;-6.240;2023-01-31T00:01:22;102356.47;;;8.63;77.00
64336;BME280;50672;53.362;-6.240;2023-01-31T00:03:54;102351.91;;;8.63;77.08
64336;BME280;50672;53.362;-6.240;2023-01-31T00:06:23;102342.91;;;8.63;77.40
64336;BME280;50672;53.362;-6.240;2023-01-31T00:08:50;102350.06;;;8.64;77.66
64336;BME280;50672;53.362;-6.240;2023-01-31T00:11:19;102359.91;;;8.65;77.47
64336;BME280;50672;53.362;-6.240;2023-01-31T00:13:47;102354.47;;;8.65;77.90
64336;BME280;50672;53.362;-6.240;2023-01-31T00:16:15;102362.75;;;8.63;78.06
64336;BME280;50672;53.362;-6.240;2023-01-31T00:18:42;102368.19;;;8.63;78.12
64336;BME280;50672;53.362;-6.240;2023-01-31T00:21:12;102356.47;;;8.63;78.26
64336;BME280;50672;53.362;-6.240;2023-01-31T00:23:40;102350.16;;;8.62;78.33
64336;BME280;50672;53.362;-6.240;2023-01-31T00:28:41;102339.31;;;8.62;78.34
64336;BME280;50672;53.362;-6.240;2023-01-31T00:31:10;102326.50;;;8.64;78.56
64336;BME280;50672;53.362;-6.240;2023-01-31T00:33:38;102333.78;;;8.64;78.66
64336;BME280;50672;53.362;-6.240;2023-01-31T00:36:17;102325.88;;;8.61;78.48
64336;BME280;50672;53.362;-6.240;2023-01-31T00:38:47;102321.44;;;8.60;78.72
64336;BME280;50672;53.362;-6.240;2023-01-31T00:41:14;102329.34;;;8.63;78.54
64336;BME280;50672;53.362;-6.240;2023-01-31T00:43:41;102328.22;;;8.65;78.81
64336;BME280;50672;53.362;-6.240;2023-01-31T00:46:08;102326.09;;;8.69;78.96
64336;BME280;50672;53.362;-6.240;2023-01-31T00:48:35;102328.69;;;8.70;78.67
64336;BME280;50672;53.362;-6.240;2023-01-31T00:51:02;102324.16;;;8.71;78.88
64336;BME280;50672;53.362;-6.240;2023-01-31T00:53:29;102326.88;;;8.71;78.62
64336;BME280;50672;53.362;-6.240;2023-01-31T00:56:08;102325.97;;;8.70;78.60
64336;BME280;50672;53.362;-6.240;2023-01-31T00:58:36;102312.53;;;8.69;79.01
64336;BME280;50672;53.362;-6.240;2023-01-31T01:03:33;102317.84;;;8.70;78.92
64336;BME280;50672;53.362;-6.240;2023-01-31T01:06:00;102321.31;;;8.72;78.82
64336;BME280;50672;53.362;-6.240;2023-01-31T01:08:28;102300.31;;;8.75;79.16
64336;BME280;50672;53.362;-6.240;2023-01-31T01:10:56;102304.88;;;8.74;78.88
64336;BME280;50672;53.362;-6.240;2023-01-31T01:13:23;102300.31;;;8.75;78.94
64336;BME280;50672;53.362;-6.240;2023-01-31T01:15:49;102289.31;;;8.76;79.03
64336;BME280;50672;53.362;-6.240;2023-01-31T01:18:16;102292.16;;;8.75;79.24
64336;BME280;50672;53.362;-6.240;2023-01-31T01:20:43;102292.03;;;8.76;78.91
64336;BME280;50672;53.362;-6.240;2023-01-31T01:23:10;102292.03;;;8.76;79.37
64336;BME280;50672;53.362;-6.240;2023-01-31T01:25:43;102287.63;;;8.75;79.10
64336;BME280;50672;53.362;-6.240;2023-01-31T01:28:11;102290.47;;;8.74;79.52
64336;BME280;50672;53.362;-6.240;2023-01-31T01:30:38;102284.41;;;8.70;79.43
64336;BME280;50672;53.362;-6.240;2023-01-31T01:33:05;102278.25;;;8.68;79.66
64336;BME280;50672;53.362;-6.240;2023-01-31T01:35:32;102279.25;;;8.67;79.71
64336;BME280;50672;53.362;-6.240;2023-01-31T01:37:59;102278.47;;;8.65;79.73
64336;BME280;50672;53.362;-6.240;2023-01-31T01:40:33;102286.03;;;8.61;80.24
64336;BME280;50672;53.362;-6.240;2023-01-31T01:43:00;102273.69;;;8.57;80.50
64336;BME280;50672;53.362;-6.240;2023-01-31T01:45:28;102279.47;;;8.52;80.42
64336;BME280;50672;53.362;-6.240;2023-01-31T01:47:59;102277.00;;;8.49;80.58
64336;BME280;50672;53.362;-6.240;2023-01-31T01:50:40;102274.44;;;8.48;81.16
64336;BME280;50672;53.362;-6.240;2023-01-31T01:53:14;102266.41;;;8.46;81.16
64336;BME280;50672;53.362;-6.240;2023-01-31T01:55:45;102270.88;;;8.47;81.60
64336;BME280;50672;53.362;-6.240;2023-01-31T01:58:16;102271.72;;;8.48;81.60
64336;BME280;50672;53.362;-6.240;2023-01-31T02:00:44;102278.88;;;8.49;81.84
64336;BME280;50672;53.362;-6.240;2023-01-31T02:03:13;102261.72;;;8.48;82.21
64336;BME280;50672;53.362;-6.240;2023-01-31T02:06:06;102269.84;;;8.48;82.47
64336;BME280;50672;53.362;-6.240;2023-01-31T02:08:35;102247.41;;;8.46;82.75
64336;BME280;50672;53.362;-6.240;2023-01-31T02:11:15;102245.69;;;8.45;82.82
64336;BME280;50672;53.362;-6.240;2023-01-31T02:13:45;102254.81;;;8.44;82.93
64336;BME280;50672;53.362;-6.240;2023-01-31T02:16:13;102252.09;;;8.44;83.42
64336;BME280;50672;53.362;-6.240;2023-01-31T02:18:41;102249.38;;;8.44;83.29
64336;BME280;50672;53.362;-6.240;2023-01-31T02:21:16;102242.00;;;8.46;83.43
64336;BME280;50672;53.362;-6.240;2023-01-31T02:40:42;102229.41;;;8.45;84.62
64336;BME280;50672;53.362;-6.240;2023-01-31T02:46:10;102232.34;;;8.42;84.85
64336;BME280;50672;53.362;-6.240;2023-01-31T02:51:18;102233.31;;;8.41;85.15
64336;BME280;50672;53.362;-6.240;2023-01-31T02:56:36;102218.78;;;8.42;85.48
64336;BME280;50672;53.362;-6.240;2023-01-31T02:59:15;102216.91;;;8.43;86.05
64336;BME280;50672;53.362;-6.240;2023-01-31T03:01:49;102216.81;;;8.44;86.02
64336;BME280;50672;53.362;-6.240;2023-01-31T03:04:20;102222.16;;;8.46;86.17
64336;BME280;50672;53.362;-6.240;2023-01-31T03:07:15;102222.75;;;8.49;85.98
64336;BME280;50672;53.362;-6.240;2023-01-31T03:10:39;102224.22;;;8.53;86.32
64336;BME280;50672;53.362;-6.240;2023-01-31T03:16:34;102222.25;;;8.55;86.72
64336;BME280;50672;53.362;-6.240;2023-01-31T03:19:37;102228.53;;;8.56;86.97
64336;BME280;50672;53.362;-6.240;2023-01-31T03:22:10;102223.09;;;8.56;86.85
64336;BME280;50672;53.362;-6.240;2023-01-31T03:24:43;102211.28;;;8.57;87.03
64336;BME280;50672;53.362;-6.240;2023-01-31T03:27:13;102214.97;;;8.56;87.27
64336;BME280;50672;53.362;-6.240;2023-01-31T03:29:41;102222.97;;;8.58;87.14
64336;BME280;50672;53.362;-6.240;2023-01-31T03:32:31;102218.41;;;8.58;87.58
64336;BME280;50672;53.362;-6.240;2023-01-31T03:34:59;102221.25;;;8.57;87.57
64336;BME280;50672;53.362;-6.240;2023-01-31T03:38:14;102214.13;;;8.55;87.83
64336;BME280;50672;53.362;-6.240;2023-01-31T03:40:52;102225.81;;;8.56;88.12
64336;BME280;50672;53.362;-6.240;2023-01-31T03:43:26;102226.94;;;8.53;87.79
64336;BME280;50672;53.362;-6.240;2023-01-31T03:46:00;102218.06;;;8.51;88.11
64336;BME280;50672;53.362;-6.240;2023-01-31T03:48:37;102223.72;;;8.48;88.49
64336;BME280;50672;53.362;-6.240;2023-01-31T03:51:09;102212.00;;;8.48;88.44
64336;BME280;50672;53.362;-6.240;2023-01-31T03:53:48;102216.59;;;8.47;88.68
64336;BME280;50672;53.362;-6.240;2023-01-31T03:56:33;102221.25;;;8.45;89.24
64336;BME280;50672;53.362;-6.240;2023-01-31T03:59:08;102212.28;;;8.45;89.11
64336;BME280;50672;53.362;-6.240;2023-01-31T04:01:40;102210.50;;;8.44;89.55
64336;BME280;50672;53.362;-6.240;2023-01-31T04:06:35;102230.38;;;8.44;89.86
64336;BME280;50672;53.362;-6.240;2023-01-31T04:09:02;102226.44;;;8.48;90.25
64336;BME280;50672;53.362;-6.240;2023-01-31T04:11:36;102230.88;;;8.49;90.57
64336;BME280;50672;53.362;-6.240;2023-01-31T04:14:04;102241.47;;;8.52;90.63
64336;BME280;50672;53.362;-6.240;2023-01-31T04:16:31;102240.50;;;8.53;90.58
64336;BME280;50672;53.362;-6.240;2023-01-31T04:18:58;102247.53;;;8.56;90.85
64336;BME280;50672;53.362;-6.240;2023-01-31T04:21:24;102254.69;;;8.57;91.03
64336;BME280;50672;53.362;-6.240;2023-01-31T04:23:51;102255.53;;;8.58;91.55
64336;BME280;50672;53.362;-6.240;2023-01-31T04:26:18;102254.81;;;8.55;91.34
64336;BME280;50672;53.362;-6.240;2023-01-31T04:28:45;102254.19;;;8.52;91.57
64336;BME280;50672;53.362;-6.240;2023-01-31T04:31:12;102263.94;;;8.43;91.50
64336;BME280;50672;53.362;-6.240;2023-01-31T04:33:40;102262.06;;;8.32;91.41
64336;BME280;50672;53.362;-6.240;2023-01-31T04:36:07;102266.28;;;8.25;91.52
64336;BME280;50672;53.362;-6.240;2023-01-31T04:38:34;102269.09;;;8.24;91.56
64336;BME280;50672;53.362;-6.240;2023-01-31T04:41:21;102270.22;;;8.21;91.41
64336;BME280;50672;53.362;-6.240;2023-01-31T04:44:16;102276.50;;;8.21;91.13
64336;BME280;50672;53.362;-6.240;2023-01-31T04:46:43;102285.00;;;8.17;90.79
64336;BME280;50672;53.362;-6.240;2023-01-31T04:49:13;102288.44;;;8.08;90.46
64336;BME280;50672;53.362;-6.240;2023-01-31T04:51:40;102293.72;;;7.98;90.42
64336;BME280;50672;53.362;-6.240;2023-01-31T04:54:07;102288.03;;;7.90;89.82
64336;BME280;50672;53.362;-6.240;2023-01-31T04:56:34;102284.31;;;7.79;89.82
64336;BME280;50672;53.362;-6.240;2023-01-31T04:59:02;102296.63;;;7.72;89.44
64336;BME280;50672;53.362;-6.240;2023-01-31T05:01:28;102302.50;;;7.66;89.08
64336;BME280;50672;53.362;-6.240;2023-01-31T05:03:55;102304.84;;;7.59;88.59
64336;BME280;50672;53.362;-6.240;2023-01-31T05:06:22;102312.34;;;7.56;88.39
64336;BME280;50672;53.362;-6.240;2023-01-31T05:08:49;102306.28;;;7.52;87.97
64336;BME280;50672;53.362;-6.240;2023-01-31T05:11:18;102307.28;;;7.51;87.20
64336;BME280;50672;53.362;-6.240;2023-01-31T05:13:45;102308.13;;;7.51;87.04
64336;BME280;50672;53.362;-6.240;2023-01-31T05:16:13;102307.41;;;7.49;86.37
64336;BME280;50672;53.362;-6.240;2023-01-31T05:18:39;102314.75;;;7.47;85.68
64336;BME280;50672;53.362;-6.240;2023-01-31T05:21:06;102299.72;;;7.43;85.32
64336;BME280;50672;53.362;-6.240;2023-01-31T05:23:34;102286.41;;;7.40;85.15
64336;BME280;50672;53.362;-6.240;2023-01-31T05:26:01;102289.47;;;7.35;84.78
64336;BME280;50672;53.362;-6.240;2023-01-31T05:28:29;102299.44;;;7.35;84.08
64336;BME280;50672;53.362;-6.240;2023-01-31T05:31:02;102295.09;;;7.32;83.71
64336;BME280;50672;53.362;-6.240;2023-01-31T05:33:29;102296.22;;;7.30;83.50
64336;BME280;50672;53.362;-6.240;2023-01-31T05:35:58;102281.91;;;7.28;83.21
64336;BME280;50672;53.362;-6.240;2023-01-31T05:38:25;102285.72;;;7.25;82.98
64336;BME280;50672;53.362;-6.240;2023-01-31T05:40:51;102284.09;;;7.23;82.79
64336;BME280;50672;53.362;-6.240;2023-01-31T05:43:18;102278.94;;;7.19;82.16
64336;BME280;50672;53.362;-6.240;2023-01-31T05:45:47;102283.50;;;7.19;82.02
64336;BME280;50672;53.362;-6.240;2023-01-31T05:48:14;102279.16;;;7.16;81.80
64336;BME280;50672;53.362;-6.240;2023-01-31T05:50:41;102287.53;;;7.13;81.62
64336;BME280;50672;53.362;-6.240;2023-01-31T05:53:07;102284.94;;;7.12;81.39
64336;BME280;50672;53.362;-6.240;2023-01-31T05:55:35;102284.28;;;7.08;81.22
64336;BME280;50672;53.362;-6.240;2023-01-31T05:58:01;102285.38;;;7.06;81.24
64336;BME280;50672;53.362;-6.240;2023-01-31T06:00:28;102279.34;;;7.02;80.89
64336;BME280;50672;53.362;-6.240;2023-01-31T06:02:57;102271.44;;;6.99;80.87
64336;BME280;50672;53.362;-6.240;2023-01-31T06:05:26;102270.81;;;6.95;80.69
64336;BME280;50672;53.362;-6.240;2023-01-31T06:07:52;102282.00;;;6.91;80.43
64336;BME280;50672;53.362;-6.240;2023-01-31T06:10:19;102283.94;;;6.89;80.69
64336;BME280;50672;53.362;-6.240;2023-01-31T06:12:47;102282.06;;;6.89;80.44
64336;BME280;50672;53.362;-6.240;2023-01-31T06:15:14;102295.53;;;6.91;80.39
64336;BME280;50672;53.362;-6.240;2023-01-31T06:17:40;102285.78;;;6.88;80.64
64336;BME280;50672;53.362;-6.240;2023-01-31T06:20:08;102272.97;;;6.90;80.65
64336;BME280;50672;53.362;-6.240;2023-01-31T06:22:34;102279.91;;;6.94;80.58
64336;BME280;50672;53.362;-6.240;2023-01-31T06:25:01;102287.06;;;6.95;80.68
64336;BME280;50672;53.362;-6.240;2023-01-31T06:27:31;102283.38;;;6.96;80.93
64336;BME280;50672;53.362;-6.240;2023-01-31T06:29:58;102292.22;;;6.98;81.10
64336;BME280;50672;53.362;-6.240;2023-01-31T06:32:25;102291.38;;;6.98;81.03
64336;BME280;50672;53.362;-6.240;2023-01-31T06:34:52;102284.00;;;7.00;81.15
64336;BME280;50672;53.362;-6.240;2023-01-31T06:37:19;102292.88;;;7.02;81.15
64336;BME280;50672;53.362;-6.240;2023-01-31T06:39:46;102279.00;;;7.07;81.28
64336;BME280;50672;53.362;-6.240;2023-01-31T06:42:12;102295.13;;;7.08;81.18
64336;BME280;50672;53.362;-6.240;2023-01-31T06:44:39;102295.00;;;7.10;81.40
64336;BME280;50672;53.362;-6.240;2023-01-31T06:47:06;102293.19;;;7.10;81.43
64336;BME280;50672;53.362;-6.240;2023-01-31T06:49:33;102303.00;;;7.11;81.48
64336;BME280;50672;53.362;-6.240;2023-01-31T06:52:00;102299.56;;;7.09;81.22
64336;BME280;50672;53.362;-6.240;2023-01-31T06:54:26;102309.50;;;7.09;81.57
64336;BME280;50672;53.362;-6.240;2023-01-31T06:56:53;102286.16;;;7.08;81.64
64336;BME280;50672;53.362;-6.240;2023-01-31T06:59:20;102312.34;;;7.07;81.36
64336;BME280;50672;53.362;-6.240;2023-01-31T07:01:47;102306.06;;;7.07;81.28
64336;BME280;50672;53.362;-6.240;2023-01-31T07:04:14;102300.88;;;7.04;81.27
64336;BME280;50672;53.362;-6.240;2023-01-31T07:06:41;102295.59;;;7.02;81.46
64336;BME280;50672;53.362;-6.240;2023-01-31T07:09:07;102309.13;;;7.02;81.44
64336;BME280;50672;53.362;-6.240;2023-01-31T07:11:36;102317.25;;;7.02;81.38
64336;BME280;50672;53.362;-6.240;2023-01-31T07:14:03;102303.91;;;6.99;81.44
64336;BME280;50672;53.362;-6.240;2023-01-31T07:16:30;102327.31;;;7.00;80.98
64336;BME280;50672;53.362;-6.240;2023-01-31T07:18:57;102339.03;;;7.00;81.30
64336;BME280;50672;53.362;-6.240;2023-01-31T07:21:24;102334.22;;;7.04;81.09
64336;BME280;50672;53.362;-6.240;2023-01-31T07:23:51;102350.59;;;7.03;81.02
64336;BME280;50672;53.362;-6.240;2023-01-31T07:26:18;102345.28;;;7.01;80.84
64336;BME280;50672;53.362;-6.240;2023-01-31T07:28:45;102352.56;;;7.00;80.67
64336;BME280;50672;53.362;-6.240;2023-01-31T07:31:13;102340.97;;;6.98;80.75
64336;BME280;50672;53.362;-6.240;2023-01-31T07:33:40;102350.94;;;6.98;80.57
64336;BME280;50672;53.362;-6.240;2023-01-31T07:36:11;102363.72;;;6.96;80.70
64336;BME280;50672;53.362;-6.240;2023-01-31T07:38:39;102353.75;;;6.96;80.70
64336;BME280;50672;53.362;-6.240;2023-01-31T07:41:06;102353.84;;;6.95;80.41
64336;BME280;50672;53.362;-6.240;2023-01-31T07:43:35;102364.78;;;6.93;80.54
64336;BME280;50672;53.362;-6.240;2023-01-31T07:46:05;102363.09;;;6.92;80.21
64336;BME280;50672;53.362;-6.240;2023-01-31T07:48:34;102371.09;;;6.94;80.53
64336;BME280;50672;53.362;-6.240;2023-01-31T07:51:01;102368.03;;;6.98;80.40
64336;BME280;50672;53.362;-6.240;2023-01-31T07:53:31;102375.94;;;7.01;80.39
64336;BME280;50672;53.362;-6.240;2023-01-31T07:56:12;102367.25;;;7.09;80.15
64336;BME280;50672;53.362;-6.240;2023-01-31T07:58:40;102359.38;;;7.06;80.15
64336;BME280;50672;53.362;-6.240;2023-01-31T08:01:19;102360.56;;;7.02;80.19
64336;BME280;50672;53.362;-6.240;2023-01-31T08:04:06;102373.34;;;7.00;80.35
64336;BME280;50672;53.362;-6.240;2023-01-31T08:06:46;102366.28;;;6.97;80.14
64336;BME280;50672;53.362;-6.240;2023-01-31T08:09:14;102376.28;;;6.97;80.11
64336;BME280;50672;53.362;-6.240;2023-01-31T08:11:41;102388.84;;;6.98;80.21
64336;BME280;50672;53.362;-6.240;2023-01-31T08:14:08;102382.53;;;6.97;80.25
64336;BME280;50672;53.362;-6.240;2023-01-31T08:16:35;102383.63;;;6.95;80.29
64336;BME280;50672;53.362;-6.240;2023-01-31T08:19:03;102394.56;;;6.93;80.56
64336;BME280;50672;53.362;-6.240;2023-01-31T08:21:29;102398.03;;;6.95;80.51
64336;BME280;50672;53.362;-6.240;2023-01-31T08:23:57;102402.38;;;6.98;80.38
64336;BME280;50672;53.362;-6.240;2023-01-31T08:26:23;102390.88;;;6.94;80.44
64336;BME280;50672;53.362;-6.240;2023-01-31T08:28:51;102415.25;;;6.94;80.53
64336;BME280;50672;53.362;-6.240;2023-01-31T08:31:22;102403.47;;;6.95;80.63
64336;BME280;50672;53.362;-6.240;2023-01-31T08:33:50;102405.09;;;6.98;80.49
64336;BME280;50672;53.362;-6.240;2023-01-31T08:36:29;102398.78;;;6.97;80.55
64336;BME280;50672;53.362;-6.240;2023-01-31T08:38:58;102393.72;;;6.93;80.48
64336;BME280;50672;53.362;-6.240;2023-01-31T08:41:26;102394.69;;;6.92;80.54
64336;BME280;50672;53.362;-6.240;2023-01-31T08:43:53;102399.25;;;6.91;80.47
64336;BME280;50672;53.362;-6.240;2023-01-31T08:46:26;102406.41;;;6.92;80.66
64336;BME280;50672;53.362;-6.240;2023-01-31T08:48:55;102402.91;;;6.90;80.42
64336;BME280;50672;53.362;-6.240;2023-01-31T08:51:22;102396.75;;;6.88;80.49
64336;BME280;50672;53.362;-6.240;2023-01-31T08:53:50;102406.69;;;6.88;80.39
64336;BME280;50672;53.362;-6.240;2023-01-31T08:56:36;102404.00;;;6.88;80.28
64336;BME280;50672;53.362;-6.240;2023-01-31T08:59:05;102404.22;;;6.84;80.68
64336;BME280;50672;53.362;-6.240;2023-01-31T09:01:32;102413.13;;;6.87;80.56
64336;BME280;50672;53.362;-6.240;2023-01-31T09:04:00;102415.72;;;6.88;80.43
64336;BME280;50672;53.362;-6.240;2023-01-31T09:06:27;102418.31;;;6.90;80.62
64336;BME280;50672;53.362;-6.240;2023-01-31T09:08:56;102420.03;;;6.91;80.77
64336;BME280;50672;53.362;-6.240;2023-01-31T09:11:26;102430.00;;;6.90;80.81
64336;BME280;50672;53.362;-6.240;2023-01-31T09:13:54;102427.16;;;6.92;80.79
64336;BME280;50672;53.362;-6.240;2023-01-31T09:16:21;102401.84;;;6.93;80.77
64336;BME280;50672;53.362;-6.240;2023-01-31T09:18:48;102419.81;;;6.94;80.85
64336;BME280;50672;53.362;-6.240;2023-01-31T09:21:17;102423.25;;;6.96;81.15
64336;BME280;50672;53.362;-6.240;2023-01-31T09:23:44;102433.97;;;6.97;81.10
64336;BME280;50672;53.362;-6.240;2023-01-31T09:26:12;102427.59;;;6.98;81.19
64336;BME280;50672;53.362;-6.240;2023-01-31T09:28:39;102447.94;;;7.04;81.23
64336;BME280;50672;53.362;-6.240;2023-01-31T09:31:10;102440.78;;;7.16;81.07
64336;BME280;50672;53.362;-6.240;2023-01-31T09:33:37;102453.34;;;7.30;81.05
64336;BME280;50672;53.362;-6.240;2023-01-31T09:36:09;102460.66;;;7.41;81.13
64336;BME280;50672;53.362;-6.240;2023-01-31T09:38:36;102466.50;;;7.47;80.91
64336;BME280;50672;53.362;-6.240;2023-01-31T09:41:08;102462.34;;;7.55;80.82
64336;BME280;50672;53.362;-6.240;2023-01-31T09:43:43;102477.94;;;7.64;80.60
64336;BME280;50672;53.362;-6.240;2023-01-31T09:46:17;102446.56;;;7.73;80.31
64336;BME280;50672;53.362;-6.240;2023-01-31T09:48:49;102453.19;;;7.68;80.26
64336;BME280;50672;53.362;-6.240;2023-01-31T09:51:17;102457.56;;;7.58;80.43
64336;BME280;50672;53.362;-6.240;2023-01-31T09:53:45;102452.94;;;7.47;80.31
64336;BME280;50672;53.362;-6.240;2023-01-31T09:56:30;102443.53;;;7.40;80.16
64336;BME280;50672;53.362;-6.240;2023-01-31T09:59:04;102456.53;;;7.35;79.84
64336;BME280;50672;53.362;-6.240;2023-01-31T10:01:48;102451.25;;;7.33;79.27
64336;BME280;50672;53.362;-6.240;2023-01-31T10:06:53;102449.19;;;7.37;78.91
64336;BME280;50672;53.362;-6.240;2023-01-31T10:09:47;102457.09;;;7.40;78.56
64336;BME280;50672;53.362;-6.240;2023-01-31T10:12:33;102449.50;;;7.45;77.93
64336;BME280;50672;53.362;-6.240;2023-01-31T10:15:14;102458.25;;;7.49;77.72
64336;BME280;50672;53.362;-6.240;2023-01-31T10:17:46;102456.31;;;7.51;77.56
64336;BME280;50672;53.362;-6.240;2023-01-31T10:23:06;102486.53;;;7.58;76.86
64336;BME280;50672;53.362;-6.240;2023-01-31T10:25:39;102471.00;;;7.60;76.91
64336;BME280;50672;53.362;-6.240;2023-01-31T10:28:17;102502.44;;;7.62;76.55
64336;BME280;50672;53.362;-6.240;2023-01-31T10:30:59;102494.06;;;7.65;76.26
64336;BME280;50672;53.362;-6.240;2023-01-31T10:34:08;102492.03;;;7.69;76.01
64336;BME280;50672;53.362;-6.240;2023-01-31T10:45:00;102513.31;;;7.86;74.44
64336;BME280;50672;53.362;-6.240;2023-01-31T10:50:04;102524.31;;;7.96;73.62
64336;BME280;50672;53.362;-6.240;2023-01-31T10:52:52;102517.81;;;7.99;73.25
64336;BME280;50672;53.362;-6.240;2023-01-31T10:58:20;102524.00;;;8.01;72.27
64336;BME280;50672;53.362;-6.240;2023-01-31T11:00:49;102519.56;;;8.00;72.24
64336;BME280;50672;53.362;-6.240;2023-01-31T11:03:16;102509.56;;;8.00;71.92
64336;BME280;50672;53.362;-6.240;2023-01-31T11:05:55;102518.56;;;8.01;71.55
64336;BME280;50672;53.362;-6.240;2023-01-31T11:08:40;102518.34;;;8.04;71.04
64336;BME280;50672;53.362;-6.240;2023-01-31T11:11:13;102510.94;;;8.06;70.95
64336;BME280;50672;53.362;-6.240;2023-01-31T11:14:00;102510.94;;;8.06;70.73
64336;BME280;50672;53.362;-6.240;2023-01-31T11:16:33;102516.25;;;8.08;70.52
64336;BME280;50672;53.362;-6.240;2023-01-31T11:19:04;102521.56;;;8.09;70.04
64336;BME280;50672;53.362;-6.240;2023-01-31T11:21:41;102521.56;;;8.09;70.07
64336;BME280;50672;53.362;-6.240;2023-01-31T11:24:17;102555.84;;;8.10;69.55
64336;BME280;50672;53.362;-6.240;2023-01-31T11:26:54;102528.47;;;8.13;69.65
64336;BME280;50672;53.362;-6.240;2023-01-31T11:29:49;102528.16;;;8.18;69.81
64336;BME280;50672;53.362;-6.240;2023-01-31T11:32:22;102545.94;;;8.22;69.39
64336;BME280;50672;53.362;-6.240;2023-01-31T11:35:02;102542.84;;;8.27;69.30
64336;BME280;50672;53.362;-6.240;2023-01-31T11:37:32;102529.94;;;8.30;69.56
64336;BME280;50672;53.362;-6.240;2023-01-31T11:40:18;102539.47;;;8.36;69.40
64336;BME280;50672;53.362;-6.240;2023-01-31T11:42:59;102531.06;;;8.63;69.15
64336;BME280;50672;53.362;-6.240;2023-01-31T11:45:32;102530.25;;;8.85;68.83
64336;BME280;50672;53.362;-6.240;2023-01-31T11:48:23;102531.59;;;8.80;68.42
64336;BME280;50672;53.362;-6.240;2023-01-31T11:50:53;102528.09;;;8.66;68.56
64336;BME280;50672;53.362;-6.240;2023-01-31T11:56:08;102522.38;;;8.58;68.42
64336;BME280;50672;53.362;-6.240;2023-01-31T11:58:39;102513.66;;;8.54;68.04
64336;BME280;50672;53.362;-6.240;2023-01-31T12:01:14;102527.22;;;8.54;67.84
64336;BME280;50672;53.362;-6.240;2023-01-31T12:03:47;102549.63;;;8.45;67.81
64336;BME280;50672;53.362;-6.240;2023-01-31T12:06:39;102524.63;;;8.53;67.65
64336;BME280;50672;53.362;-6.240;2023-01-31T12:09:21;102516.75;;;8.61;67.33
64336;BME280;50672;53.362;-6.240;2023-01-31T12:11:52;102519.81;;;8.57;66.77
64336;BME280;50672;53.362;-6.240;2023-01-31T12:14:20;102527.06;;;8.45;66.67
64336;BME280;50672;53.362;-6.240;2023-01-31T12:16:48;102517.25;;;8.42;66.69
64336;BME280;50672;53.362;-6.240;2023-01-31T12:19:27;102519.53;;;8.48;66.62
64336;BME280;50672;53.362;-6.240;2023-01-31T12:22:14;102508.59;;;8.50;66.55
64336;BME280;50672;53.362;-6.240;2023-01-31T12:27:48;102480.81;;;8.58;66.36
64336;BME280;50672;53.362;-6.240;2023-01-31T12:30:44;102497.88;;;8.60;66.17
64336;BME280;50672;53.362;-6.240;2023-01-31T12:39:14;102503.06;;;8.63;65.32
64336;BME280;50672;53.362;-6.240;2023-01-31T12:44:49;102502.09;;;8.64;64.63
64336;BME280;50672;53.362;-6.240;2023-01-31T12:47:32;102487.63;;;8.63;64.38
64336;BME280;50672;53.362;-6.240;2023-01-31T12:50:22;102499.13;;;8.67;64.04
64336;BME280;50672;53.362;-6.240;2023-01-31T12:53:38;102496.16;;;8.70;64.02
64336;BME280;50672;53.362;-6.240;2023-01-31T13:01:47;102497.41;;;8.88;63.51
64336;BME280;50672;53.362;-6.240;2023-01-31T13:04:38;102502.38;;;8.95;63.00
64336;BME280;50672;53.362;-6.240;2023-01-31T13:07:18;102501.41;;;9.07;63.02
64336;BME280;50672;53.362;-6.240;2023-01-31T13:09:50;102489.78;;;9.28;62.61
64336;BME280;50672;53.362;-6.240;2023-01-31T13:12:22;102483.88;;;9.34;62.15
64336;BME280;50672;53.362;-6.240;2023-01-31T13:17:32;102497.56;;;9.55;61.49
64336;BME280;50672;53.362;-6.240;2023-01-31T13:20:08;102499.72;;;9.84;61.39
64336;BME280;50672;53.362;-6.240;2023-01-31T13:22:46;102497.44;;;10.00;61.06
64336;BME280;50672;53.362;-6.240;2023-01-31T13:25:21;102470.06;;;10.13;60.67
64336;BME280;50672;53.362;-6.240;2023-01-31T13:28:01;102503.41;;;9.94;60.68
64336;BME280;50672;53.362;-6.240;2023-01-31T13:30:32;102493.25;;;9.96;60.18
64336;BME280;50672;53.362;-6.240;2023-01-31T13:33:15;102495.41;;;9.81;59.97
64336;BME280;50672;53.362;-6.240;2023-01-31T13:35:44;102493.03;;;9.77;59.74
64336;BME280;50672;53.362;-6.240;2023-01-31T13:38:17;102499.13;;;9.69;59.89
64336;BME280;50672;53.362;-6.240;2023-01-31T13:40:51;102476.41;;;9.58;59.53
64336;BME280;50672;53.362;-6.240;2023-01-31T13:43:20;102478.28;;;9.47;59.40
64336;BME280;50672;53.362;-6.240;2023-01-31T13:45:57;102470.50;;;9.42;59.48
64336;BME280;50672;53.362;-6.240;2023-01-31T13:48:39;102468.41;;;9.34;59.37
64336;BME280;50672;53.362;-6.240;2023-01-31T13:51:18;102465.44;;;9.26;59.50
64336;BME280;50672;53.362;-6.240;2023-01-31T13:54:06;102482.13;;;9.21;59.51
64336;BME280;50672;53.362;-6.240;2023-01-31T13:56:38;102480.53;;;9.19;59.42
64336;BME280;50672;53.362;-6.240;2023-01-31T13:59:09;102507.81;;;9.17;59.11
64336;BME280;50672;53.362;-6.240;2023-01-31T14:01:46;102483.88;;;9.11;59.42
64336;BME280;50672;53.362;-6.240;2023-01-31T14:09:29;102475.56;;;9.01;59.82
64336;BME280;50672;53.362;-6.240;2023-01-31T14:11:59;102454.72;;;9.02;59.67
64336;BME280;50672;53.362;-6.240;2023-01-31T14:27:25;102467.78;;;8.97;59.86
64336;BME280;50672;53.362;-6.240;2023-01-31T14:32:42;102461.50;;;8.96;60.41
64336;BME280;50672;53.362;-6.240;2023-01-31T14:46:39;102493.47;;;8.93;59.85
64336;BME280;50672;53.362;-6.240;2023-01-31T14:52:39;102487.66;;;8.86;59.78
64336;BME280;50672;53.362;-6.240;2023-01-31T14:58:23;102488.66;;;8.74;59.45
64336;BME280;50672;53.362;-6.240;2023-01-31T15:00:56;102478.66;;;8.74;59.30
64336;BME280;50672;53.362;-6.240;2023-01-31T15:03:54;102478.66;;;8.74;59.42
64336;BME280;50672;53.362;-6.240;2023-01-31T15:09:18;102486.66;;;8.76;59.39
64336;BME280;50672;53.362;-6.240;2023-01-31T15:11:55;102477.53;;;8.77;59.30
64336;BME280;50672;53.362;-6.240;2023-01-31T15:14:29;102468.75;;;8.73;59.28
64336;BME280;50672;53.362;-6.240;2023-01-31T15:17:11;102476.66;;;8.76;59.49